sensor_id;sensor_type;location;lat;lon;timestamp;P1;durP1;ratioP1;P2;durP2;ratioP2
17725;SDS011;8983;53.156;17.960;2022-08-01T00:00:54;1.97;;;1.87;;
17725;SDS011;8983;53.156;17.960;2022-08-01T00:03:22;2.77;;;2.20;;
17725;SDS011;8983;53.156;17.960;2022-08-01T00:05:50;3.07;;;2.10;;
17725;SDS011;8983;53.156;17.960;2022-08-01T00:08:18;2.83;;;2.30;;
17725;SDS011;8983;53.156;17.960;2022-08-01T00:10:47;3.30;;;2.40;;
17725;SDS011;8983;53.156;17.960;2022-08-01T00:13:15;2.73;;;2.27;;
17725;SDS011;8983;53.156;17.960;2022-08-01T00:15:43;2.43;;;2.20;;
17725;SDS011;8983;53.156;17.960;2022-08-01T00:18:20;2.50;;;2.20;;
17725;SDS011;8983;53.156;17.960;2022-08-01T00:20:49;3.00;;;2.17;;
17725;SDS011;8983;53.156;17.960;2022-08-01T00:23:17;2.63;;;2.10;;
17725;SDS011;8983;53.156;17.960;2022-08-01T00:25:45;3.23;;;2.30;;
17725;SDS011;8983;53.156;17.960;2022-08-01T00:28:13;3.63;;;2.40;;
17725;SDS011;8983;53.156;17.960;2022-08-01T00:30:42;2.50;;;2.30;;
17725;SDS011;8983;53.156;17.960;2022-08-01T00:33:10;3.80;;;2.47;;
17725;SDS011;8983;53.156;17.960;2022-08-01T00:35:39;4.47;;;2.50;;
17725;SDS011;8983;53.156;17.960;2022-08-01T00:38:08;2.00;;;1.90;;
17725;SDS011;8983;53.156;17.960;2022-08-01T00:40:37;2.60;;;2.20;;
17725;SDS011;8983;53.156;17.960;2022-08-01T00:43:05;2.30;;;2.10;;
17725;SDS011;8983;53.156;17.960;2022-08-01T00:45:33;2.60;;;2.00;;
17725;SDS011;8983;53.156;17.960;2022-08-01T00:48:01;3.43;;;2.30;;
17725;SDS011;8983;53.156;17.960;2022-08-01T00:50:29;2.07;;;1.93;;
17725;SDS011;8983;53.156;17.960;2022-08-01T00:52:59;2.40;;;2.20;;
17725;SDS011;8983;53.156;17.960;2022-08-01T00:55:27;2.30;;;2.13;;
17725;SDS011;8983;53.156;17.960;2022-08-01T00:57:56;2.00;;;1.90;;
17725;SDS011;8983;53.156;17.960;2022-08-01T01:00:31;2.90;;;1.80;;
17725;SDS011;8983;53.156;17.960;2022-08-01T01:03:20;2.40;;;2.20;;
17725;SDS011;8983;53.156;17.960;2022-08-01T01:06:14;3.73;;;2.13;;
17725;SDS011;8983;53.156;17.960;2022-08-01T01:08:58;2.57;;;2.20;;
17725;SDS011;8983;53.156;17.960;2022-08-01T01:11:37;2.50;;;1.83;;
17725;SDS011;8983;53.156;17.960;2022-08-01T01:14:16;2.30;;;2.10;;
17725;SDS011;8983;53.156;17.960;2022-08-01T01:16:54;2.57;;;2.37;;
17725;SDS011;8983;53.156;17.960;2022-08-01T01:19:27;6.13;;;2.10;;
17725;SDS011;8983;53.156;17.960;2022-08-01T01:22:11;4.70;;;2.37;;
17725;SDS011;8983;53.156;17.960;2022-08-01T01:24:54;2.20;;;1.93;;
17725;SDS011;8983;53.156;17.960;2022-08-01T01:27:36;2.67;;;2.03;;
17725;SDS011;8983;53.156;17.960;2022-08-01T01:30:18;2.77;;;2.13;;
17725;SDS011;8983;53.156;17.960;2022-08-01T01:32:48;2.07;;;1.97;;
17725;SDS011;8983;53.156;17.960;2022-08-01T01:35:20;2.27;;;2.00;;
17725;SDS011;8983;53.156;17.960;2022-08-01T01:38:01;2.67;;;2.47;;
17725;SDS011;8983;53.156;17.960;2022-08-01T01:40:34;2.67;;;2.47;;
17725;SDS011;8983;53.156;17.960;2022-08-01T01:43:04;2.50;;;2.30;;
17725;SDS011;8983;53.156;17.960;2022-08-01T01:45:36;2.87;;;2.10;;
17725;SDS011;8983;53.156;17.960;2022-08-01T01:48:04;2.73;;;2.50;;
17725;SDS011;8983;53.156;17.960;2022-08-01T01:50:35;4.00;;;2.40;;
17725;SDS011;8983;53.156;17.960;2022-08-01T01:53:04;2.50;;;2.30;;
17725;SDS011;8983;53.156;17.960;2022-08-01T01:55:40;3.93;;;2.87;;
17725;SDS011;8983;53.156;17.960;2022-08-01T01:58:15;3.00;;;2.00;;
17725;SDS011;8983;53.156;17.960;2022-08-01T02:00:47;3.33;;;2.43;;
17725;SDS011;8983;53.156;17.960;2022-08-01T02:03:17;2.60;;;2.40;;
17725;SDS011;8983;53.156;17.960;2022-08-01T02:05:46;2.70;;;2.50;;
17725;SDS011;8983;53.156;17.960;2022-08-01T02:08:16;3.37;;;2.30;;
17725;SDS011;8983;53.156;17.960;2022-08-01T02:10:45;3.90;;;2.80;;
17725;SDS011;8983;53.156;17.960;2022-08-01T02:13:28;2.60;;;2.40;;
17725;SDS011;8983;53.156;17.960;2022-08-01T02:15:59;2.83;;;2.40;;
17725;SDS011;8983;53.156;17.960;2022-08-01T02:18:28;2.60;;;2.40;;
17725;SDS011;8983;53.156;17.960;2022-08-01T02:20:57;2.70;;;2.30;;
17725;SDS011;8983;53.156;17.960;2022-08-01T02:23:28;3.07;;;2.57;;
17725;SDS011;8983;53.156;17.960;2022-08-01T02:26:01;3.73;;;2.60;;
17725;SDS011;8983;53.156;17.960;2022-08-01T02:28:38;2.07;;;1.87;;
17725;SDS011;8983;53.156;17.960;2022-08-01T02:31:13;2.50;;;2.30;;
17725;SDS011;8983;53.156;17.960;2022-08-01T02:33:44;3.00;;;2.17;;
17725;SDS011;8983;53.156;17.960;2022-08-01T02:36:16;2.67;;;2.40;;
17725;SDS011;8983;53.156;17.960;2022-08-01T02:38:58;3.97;;;2.60;;
17725;SDS011;8983;53.156;17.960;2022-08-01T02:41:27;2.20;;;2.00;;
17725;SDS011;8983;53.156;17.960;2022-08-01T02:43:58;2.40;;;2.20;;
17725;SDS011;8983;53.156;17.960;2022-08-01T02:46:31;2.50;;;2.30;;
17725;SDS011;8983;53.156;17.960;2022-08-01T02:49:03;2.27;;;2.07;;
17725;SDS011;8983;53.156;17.960;2022-08-01T02:51:35;2.57;;;2.37;;
17725;SDS011;8983;53.156;17.960;2022-08-01T02:54:05;2.10;;;2.00;;
17725;SDS011;8983;53.156;17.960;2022-08-01T02:56:35;3.10;;;2.10;;
17725;SDS011;8983;53.156;17.960;2022-08-01T02:59:04;2.20;;;2.00;;
17725;SDS011;8983;53.156;17.960;2022-08-01T03:01:36;2.13;;;2.00;;
17725;SDS011;8983;53.156;17.960;2022-08-01T03:04:07;2.37;;;2.10;;
17725;SDS011;8983;53.156;17.960;2022-08-01T03:06:36;2.23;;;2.03;;
17725;SDS011;8983;53.156;17.960;2022-08-01T03:09:09;2.23;;;2.03;;
17725;SDS011;8983;53.156;17.960;2022-08-01T03:11:39;2.10;;;1.90;;
17725;SDS011;8983;53.156;17.960;2022-08-01T03:14:10;4.57;;;2.50;;
17725;SDS011;8983;53.156;17.960;2022-08-01T03:16:42;3.90;;;2.10;;
17725;SDS011;8983;53.156;17.960;2022-08-01T03:19:11;2.03;;;1.93;;
17725;SDS011;8983;53.156;17.960;2022-08-01T03:21:41;2.13;;;2.00;;
17725;SDS011;8983;53.156;17.960;2022-08-01T03:24:11;2.07;;;1.93;;
17725;SDS011;8983;53.156;17.960;2022-08-01T03:26:41;2.87;;;2.30;;
17725;SDS011;8983;53.156;17.960;2022-08-01T03:29:11;3.00;;;2.10;;
17725;SDS011;8983;53.156;17.960;2022-08-01T03:31:44;2.67;;;2.20;;
17725;SDS011;8983;53.156;17.960;2022-08-01T03:34:15;2.13;;;1.90;;
17725;SDS011;8983;53.156;17.960;2022-08-01T03:36:45;2.20;;;2.00;;
17725;SDS011;8983;53.156;17.960;2022-08-01T03:39:15;2.27;;;2.07;;
17725;SDS011;8983;53.156;17.960;2022-08-01T03:41:46;3.07;;;2.33;;
17725;SDS011;8983;53.156;17.960;2022-08-01T03:44:30;3.13;;;2.30;;
17725;SDS011;8983;53.156;17.960;2022-08-01T03:47:04;2.60;;;2.40;;
17725;SDS011;8983;53.156;17.960;2022-08-01T03:49:37;2.30;;;2.10;;
17725;SDS011;8983;53.156;17.960;2022-08-01T03:52:09;2.43;;;2.10;;
17725;SDS011;8983;53.156;17.960;2022-08-01T03:54:40;3.23;;;2.37;;
17725;SDS011;8983;53.156;17.960;2022-08-01T03:57:11;2.40;;;2.20;;
17725;SDS011;8983;53.156;17.960;2022-08-01T04:00:00;2.40;;;2.20;;
17725;SDS011;8983;53.156;17.960;2022-08-01T04:02:33;2.37;;;2.10;;
17725;SDS011;8983;53.156;17.960;2022-08-01T04:05:02;3.77;;;2.23;;
17725;SDS011;8983;53.156;17.960;2022-08-01T04:07:32;2.67;;;2.47;;
17725;SDS011;8983;53.156;17.960;2022-08-01T04:10:02;2.63;;;2.40;;
17725;SDS011;8983;53.156;17.960;2022-08-01T04:12:31;2.43;;;2.23;;
17725;SDS011;8983;53.156;17.960;2022-08-01T04:14:59;3.23;;;2.73;;
17725;SDS011;8983;53.156;17.960;2022-08-01T04:17:27;3.53;;;2.50;;
17725;SDS011;8983;53.156;17.960;2022-08-01T04:19:56;4.63;;;2.40;;
17725;SDS011;8983;53.156;17.960;2022-08-01T04:22:24;3.33;;;2.93;;
17725;SDS011;8983;53.156;17.960;2022-08-01T04:24:53;3.00;;;2.73;;
17725;SDS011;8983;53.156;17.960;2022-08-01T04:27:25;3.20;;;2.90;;
17725;SDS011;8983;53.156;17.960;2022-08-01T04:30:17;3.40;;;2.53;;
17725;SDS011;8983;53.156;17.960;2022-08-01T04:32:47;3.10;;;2.37;;
17725;SDS011;8983;53.156;17.960;2022-08-01T04:35:18;3.20;;;2.90;;
17725;SDS011;8983;53.156;17.960;2022-08-01T04:38:08;2.87;;;2.57;;
17725;SDS011;8983;53.156;17.960;2022-08-01T04:40:40;4.73;;;2.63;;
17725;SDS011;8983;53.156;17.960;2022-08-01T04:43:09;3.33;;;2.87;;
17725;SDS011;8983;53.156;17.960;2022-08-01T04:45:40;3.07;;;2.77;;
17725;SDS011;8983;53.156;17.960;2022-08-01T04:48:10;4.17;;;2.93;;
17725;SDS011;8983;53.156;17.960;2022-08-01T04:50:42;3.17;;;2.80;;
17725;SDS011;8983;53.156;17.960;2022-08-01T04:53:12;2.90;;;2.70;;
17725;SDS011;8983;53.156;17.960;2022-08-01T04:55:40;2.90;;;2.53;;
17725;SDS011;8983;53.156;17.960;2022-08-01T04:58:08;4.57;;;2.70;;
17725;SDS011;8983;53.156;17.960;2022-08-01T05:00:43;3.40;;;3.10;;
17725;SDS011;8983;53.156;17.960;2022-08-01T05:03:11;3.20;;;2.90;;
17725;SDS011;8983;53.156;17.960;2022-08-01T05:05:39;4.20;;;3.07;;
17725;SDS011;8983;53.156;17.960;2022-08-01T05:08:08;4.30;;;3.13;;
17725;SDS011;8983;53.156;17.960;2022-08-01T05:10:36;3.90;;;3.10;;
17725;SDS011;8983;53.156;17.960;2022-08-01T05:13:04;3.10;;;2.80;;
17725;SDS011;8983;53.156;17.960;2022-08-01T05:15:33;3.50;;;3.20;;
17725;SDS011;8983;53.156;17.960;2022-08-01T05:18:03;3.70;;;3.40;;
17725;SDS011;8983;53.156;17.960;2022-08-01T05:20:33;3.37;;;3.07;;
17725;SDS011;8983;53.156;17.960;2022-08-01T05:23:01;3.60;;;3.27;;
17725;SDS011;8983;53.156;17.960;2022-08-01T05:25:31;3.70;;;3.40;;
17725;SDS011;8983;53.156;17.960;2022-08-01T05:28:19;4.60;;;3.47;;
17725;SDS011;8983;53.156;17.960;2022-08-01T05:30:47;3.43;;;3.10;;
17725;SDS011;8983;53.156;17.960;2022-08-01T05:33:15;4.93;;;3.53;;
17725;SDS011;8983;53.156;17.960;2022-08-01T05:35:43;5.77;;;3.97;;
17725;SDS011;8983;53.156;17.960;2022-08-01T05:38:13;4.10;;;3.77;;
17725;SDS011;8983;53.156;17.960;2022-08-01T05:40:43;6.87;;;3.90;;
17725;SDS011;8983;53.156;17.960;2022-08-01T05:43:11;5.37;;;3.70;;
17725;SDS011;8983;53.156;17.960;2022-08-01T05:45:39;4.77;;;3.70;;
17725;SDS011;8983;53.156;17.960;2022-08-01T05:48:07;8.97;;;3.90;;
17725;SDS011;8983;53.156;17.960;2022-08-01T05:50:35;6.10;;;3.77;;
17725;SDS011;8983;53.156;17.960;2022-08-01T05:53:04;9.60;;;4.07;;
17725;SDS011;8983;53.156;17.960;2022-08-01T05:55:32;4.17;;;3.70;;
17725;SDS011;8983;53.156;17.960;2022-08-01T05:58:02;4.33;;;3.90;;
17725;SDS011;8983;53.156;17.960;2022-08-01T06:00:30;4.77;;;3.83;;
17725;SDS011;8983;53.156;17.960;2022-08-01T06:02:58;5.33;;;4.00;;
17725;SDS011;8983;53.156;17.960;2022-08-01T06:05:26;4.47;;;4.00;;
17725;SDS011;8983;53.156;17.960;2022-08-01T06:07:54;4.67;;;4.10;;
17725;SDS011;8983;53.156;17.960;2022-08-01T06:10:24;4.87;;;4.20;;
17725;SDS011;8983;53.156;17.960;2022-08-01T06:12:52;6.27;;;3.90;;
17725;SDS011;8983;53.156;17.960;2022-08-01T06:15:22;8.73;;;4.03;;
17725;SDS011;8983;53.156;17.960;2022-08-01T06:17:50;4.83;;;4.10;;
17725;SDS011;8983;53.156;17.960;2022-08-01T06:20:18;6.57;;;4.30;;
17725;SDS011;8983;53.156;17.960;2022-08-01T06:22:46;5.83;;;4.07;;
17725;SDS011;8983;53.156;17.960;2022-08-01T06:25:17;3.80;;;3.50;;
17725;SDS011;8983;53.156;17.960;2022-08-01T06:27:46;4.17;;;3.77;;
17725;SDS011;8983;53.156;17.960;2022-08-01T06:30:15;5.00;;;3.80;;
17725;SDS011;8983;53.156;17.960;2022-08-01T06:32:45;4.53;;;3.90;;
17725;SDS011;8983;53.156;17.960;2022-08-01T06:35:13;4.93;;;3.77;;
17725;SDS011;8983;53.156;17.960;2022-08-01T06:37:42;4.50;;;4.10;;
17725;SDS011;8983;53.156;17.960;2022-08-01T06:40:11;5.17;;;3.77;;
17725;SDS011;8983;53.156;17.960;2022-08-01T06:42:42;4.00;;;3.60;;
17725;SDS011;8983;53.156;17.960;2022-08-01T06:45:12;4.20;;;3.80;;
17725;SDS011;8983;53.156;17.960;2022-08-01T06:47:42;7.93;;;4.07;;
17725;SDS011;8983;53.156;17.960;2022-08-01T06:50:16;4.60;;;3.47;;
17725;SDS011;8983;53.156;17.960;2022-08-01T06:52:44;7.87;;;4.00;;
17725;SDS011;8983;53.156;17.960;2022-08-01T06:55:12;6.37;;;3.23;;
17725;SDS011;8983;53.156;17.960;2022-08-01T06:57:46;4.40;;;3.00;;
17725;SDS011;8983;53.156;17.960;2022-08-01T07:00:15;3.87;;;3.20;;
17725;SDS011;8983;53.156;17.960;2022-08-01T07:02:50;4.50;;;3.50;;
17725;SDS011;8983;53.156;17.960;2022-08-01T07:05:18;9.07;;;3.50;;
17725;SDS011;8983;53.156;17.960;2022-08-01T07:07:47;3.30;;;3.00;;
17725;SDS011;8983;53.156;17.960;2022-08-01T07:10:15;3.47;;;2.97;;
17725;SDS011;8983;53.156;17.960;2022-08-01T07:12:44;3.90;;;2.70;;
17725;SDS011;8983;53.156;17.960;2022-08-01T07:15:12;4.37;;;3.37;;
17725;SDS011;8983;53.156;17.960;2022-08-01T07:17:42;6.97;;;3.00;;
17725;SDS011;8983;53.156;17.960;2022-08-01T07:20:12;5.23;;;2.47;;
17725;SDS011;8983;53.156;17.960;2022-08-01T07:22:41;3.07;;;2.50;;
17725;SDS011;8983;53.156;17.960;2022-08-01T07:25:12;3.90;;;2.87;;
17725;SDS011;8983;53.156;17.960;2022-08-01T07:27:40;6.53;;;2.97;;
17725;SDS011;8983;53.156;17.960;2022-08-01T07:30:09;3.37;;;2.80;;
17725;SDS011;8983;53.156;17.960;2022-08-01T07:32:37;3.80;;;2.77;;
17725;SDS011;8983;53.156;17.960;2022-08-01T07:35:06;5.93;;;2.80;;
17725;SDS011;8983;53.156;17.960;2022-08-01T07:37:35;3.67;;;2.70;;
17725;SDS011;8983;53.156;17.960;2022-08-01T07:40:14;5.17;;;2.90;;
17725;SDS011;8983;53.156;17.960;2022-08-01T07:42:42;4.90;;;3.20;;
17725;SDS011;8983;53.156;17.960;2022-08-01T07:45:11;2.80;;;2.43;;
17725;SDS011;8983;53.156;17.960;2022-08-01T07:47:39;4.97;;;2.83;;
17725;SDS011;8983;53.156;17.960;2022-08-01T07:50:07;3.97;;;2.43;;
17725;SDS011;8983;53.156;17.960;2022-08-01T07:52:37;5.43;;;2.77;;
17725;SDS011;8983;53.156;17.960;2022-08-01T07:55:06;2.60;;;2.40;;
17725;SDS011;8983;53.156;17.960;2022-08-01T07:57:35;4.53;;;2.27;;
17725;SDS011;8983;53.156;17.960;2022-08-01T08:00:03;9.63;;;2.80;;
17725;SDS011;8983;53.156;17.960;2022-08-01T08:02:33;3.40;;;2.20;;
17725;SDS011;8983;53.156;17.960;2022-08-01T08:05:01;6.17;;;2.40;;
17725;SDS011;8983;53.156;17.960;2022-08-01T08:07:30;4.53;;;2.43;;
17725;SDS011;8983;53.156;17.960;2022-08-01T08:10:00;2.90;;;2.00;;
17725;SDS011;8983;53.156;17.960;2022-08-01T08:12:28;4.37;;;2.30;;
17725;SDS011;8983;53.156;17.960;2022-08-01T08:14:56;2.97;;;2.03;;
17725;SDS011;8983;53.156;17.960;2022-08-01T08:17:26;5.07;;;2.40;;
17725;SDS011;8983;53.156;17.960;2022-08-01T08:20:01;2.73;;;2.17;;
17725;SDS011;8983;53.156;17.960;2022-08-01T08:22:34;3.73;;;2.10;;
17725;SDS011;8983;53.156;17.960;2022-08-01T08:25:05;9.50;;;2.67;;
17725;SDS011;8983;53.156;17.960;2022-08-01T08:27:35;2.13;;;2.00;;
17725;SDS011;8983;53.156;17.960;2022-08-01T08:30:04;4.07;;;2.80;;
17725;SDS011;8983;53.156;17.960;2022-08-01T08:32:34;4.13;;;2.33;;
17725;SDS011;8983;53.156;17.960;2022-08-01T08:35:02;10.47;;;2.67;;
17725;SDS011;8983;53.156;17.960;2022-08-01T08:37:32;4.53;;;2.80;;
17725;SDS011;8983;53.156;17.960;2022-08-01T08:40:10;3.47;;;2.57;;
17725;SDS011;8983;53.156;17.960;2022-08-01T08:42:39;2.70;;;2.47;;
17725;SDS011;8983;53.156;17.960;2022-08-01T08:45:08;5.07;;;2.73;;
17725;SDS011;8983;53.156;17.960;2022-08-01T08:47:37;3.43;;;2.33;;
17725;SDS011;8983;53.156;17.960;2022-08-01T08:50:08;4.50;;;2.50;;
17725;SDS011;8983;53.156;17.960;2022-08-01T08:52:37;6.40;;;2.53;;
17725;SDS011;8983;53.156;17.960;2022-08-01T08:55:07;2.63;;;2.43;;
17725;SDS011;8983;53.156;17.960;2022-08-01T08:57:40;3.60;;;2.70;;
17725;SDS011;8983;53.156;17.960;2022-08-01T09:00:11;9.80;;;3.27;;
17725;SDS011;8983;53.156;17.960;2022-08-01T09:02:41;2.80;;;2.60;;
17725;SDS011;8983;53.156;17.960;2022-08-01T09:05:10;4.20;;;2.50;;
17725;SDS011;8983;53.156;17.960;2022-08-01T09:07:44;3.77;;;2.40;;
17725;SDS011;8983;53.156;17.960;2022-08-01T09:10:14;3.00;;;2.67;;
17725;SDS011;8983;53.156;17.960;2022-08-01T09:15:42;3.30;;;2.60;;
17725;SDS011;8983;53.156;17.960;2022-08-01T09:18:28;3.67;;;2.63;;
17725;SDS011;8983;53.156;17.960;2022-08-01T09:23:45;4.83;;;2.83;;
17725;SDS011;8983;53.156;17.960;2022-08-01T09:26:22;2.77;;;2.50;;
17725;SDS011;8983;53.156;17.960;2022-08-01T09:28:57;5.93;;;3.30;;
17725;SDS011;8983;53.156;17.960;2022-08-01T09:31:26;3.33;;;2.90;;
17725;SDS011;8983;53.156;17.960;2022-08-01T09:34:04;4.80;;;2.90;;
17725;SDS011;8983;53.156;17.960;2022-08-01T09:36:43;3.03;;;2.67;;
17725;SDS011;8983;53.156;17.960;2022-08-01T09:39:14;5.43;;;2.97;;
17725;SDS011;8983;53.156;17.960;2022-08-01T09:41:44;4.40;;;2.90;;
17725;SDS011;8983;53.156;17.960;2022-08-01T09:44:12;4.20;;;3.40;;
17725;SDS011;8983;53.156;17.960;2022-08-01T09:46:51;3.95;;;3.58;;
17725;SDS011;8983;53.156;17.960;2022-08-01T09:49:27;4.83;;;3.10;;
17725;SDS011;8983;53.156;17.960;2022-08-01T09:52:17;3.93;;;3.47;;
17725;SDS011;8983;53.156;17.960;2022-08-01T09:54:52;6.13;;;3.27;;
17725;SDS011;8983;53.156;17.960;2022-08-01T09:57:22;3.40;;;3.10;;
17725;SDS011;8983;53.156;17.960;2022-08-01T09:59:52;5.15;;;3.33;;
17725;SDS011;8983;53.156;17.960;2022-08-01T10:02:29;3.95;;;3.45;;
17725;SDS011;8983;53.156;17.960;2022-08-01T10:04:59;5.03;;;3.85;;
17725;SDS011;8983;53.156;17.960;2022-08-01T10:07:34;6.28;;;3.88;;
17725;SDS011;8983;53.156;17.960;2022-08-01T10:10:10;7.63;;;4.20;;
17725;SDS011;8983;53.156;17.960;2022-08-01T10:12:41;6.20;;;3.88;;
17725;SDS011;8983;53.156;17.960;2022-08-01T10:15:13;5.60;;;4.13;;
17725;SDS011;8983;53.156;17.960;2022-08-01T10:17:45;5.97;;;3.60;;
17725;SDS011;8983;53.156;17.960;2022-08-01T10:20:23;3.65;;;3.35;;
17725;SDS011;8983;53.156;17.960;2022-08-01T10:22:58;3.85;;;3.45;;
17725;SDS011;8983;53.156;17.960;2022-08-01T10:25:33;6.93;;;3.63;;
17725;SDS011;8983;53.156;17.960;2022-08-01T10:28:13;5.13;;;4.28;;
17725;SDS011;8983;53.156;17.960;2022-08-01T10:30:43;8.00;;;3.78;;
17725;SDS011;8983;53.156;17.960;2022-08-01T10:33:14;8.13;;;4.85;;
17725;SDS011;8983;53.156;17.960;2022-08-01T10:36:03;6.20;;;3.90;;
17725;SDS011;8983;53.156;17.960;2022-08-01T10:38:34;6.60;;;4.15;;
17725;SDS011;8983;53.156;17.960;2022-08-01T10:41:03;6.10;;;4.13;;
17725;SDS011;8983;53.156;17.960;2022-08-01T10:43:36;5.07;;;4.57;;
17725;SDS011;8983;53.156;17.960;2022-08-01T10:46:06;4.97;;;4.30;;
17725;SDS011;8983;53.156;17.960;2022-08-01T10:48:38;5.05;;;4.55;;
17725;SDS011;8983;53.156;17.960;2022-08-01T10:51:12;5.82;;;4.30;;
17725;SDS011;8983;53.156;17.960;2022-08-01T10:53:47;6.57;;;4.03;;
17725;SDS011;8983;53.156;17.960;2022-08-01T10:56:20;6.95;;;4.60;;
17725;SDS011;8983;53.156;17.960;2022-08-01T10:59:00;6.07;;;4.07;;
17725;SDS011;8983;53.156;17.960;2022-08-01T11:01:36;6.22;;;4.22;;
17725;SDS011;8983;53.156;17.960;2022-08-01T11:04:11;6.13;;;3.97;;
17725;SDS011;8983;53.156;17.960;2022-08-01T11:06:49;3.95;;;3.55;;
17725;SDS011;8983;53.156;17.960;2022-08-01T11:09:26;4.78;;;3.85;;
17725;SDS011;8983;53.156;17.960;2022-08-01T11:12:03;5.35;;;4.00;;
17725;SDS011;8983;53.156;17.960;2022-08-01T11:17:59;5.65;;;4.03;;
17725;SDS011;8983;53.156;17.960;2022-08-01T11:20:31;5.15;;;3.83;;
17725;SDS011;8983;53.156;17.960;2022-08-01T11:23:16;5.00;;;4.00;;
17725;SDS011;8983;53.156;17.960;2022-08-01T11:26:07;5.93;;;3.83;;
17725;SDS011;8983;53.156;17.960;2022-08-01T11:28:38;5.32;;;3.40;;
17725;SDS011;8983;53.156;17.960;2022-08-01T11:31:29;4.05;;;3.50;;
17725;SDS011;8983;53.156;17.960;2022-08-01T11:34:03;5.22;;;3.40;;
17725;SDS011;8983;53.156;17.960;2022-08-01T11:36:31;4.15;;;3.30;;
17725;SDS011;8983;53.156;17.960;2022-08-01T11:39:19;4.47;;;3.17;;
17725;SDS011;8983;53.156;17.960;2022-08-01T11:41:48;3.78;;;3.40;;
17725;SDS011;8983;53.156;17.960;2022-08-01T11:44:17;4.97;;;3.50;;
17725;SDS011;8983;53.156;17.960;2022-08-01T11:47:02;4.28;;;3.20;;
17725;SDS011;8983;53.156;17.960;2022-08-01T11:52:26;4.80;;;3.38;;
17725;SDS011;8983;53.156;17.960;2022-08-01T11:54:57;4.45;;;3.05;;
17725;SDS011;8983;53.156;17.960;2022-08-01T11:57:35;4.55;;;3.33;;
17725;SDS011;8983;53.156;17.960;2022-08-01T12:00:06;3.70;;;3.38;;
17725;SDS011;8983;53.156;17.960;2022-08-01T12:02:43;4.32;;;3.25;;
17725;SDS011;8983;53.156;17.960;2022-08-01T12:05:13;4.18;;;3.33;;
17725;SDS011;8983;53.156;17.960;2022-08-01T12:07:50;3.58;;;2.97;;
17725;SDS011;8983;53.156;17.960;2022-08-01T12:10:20;3.95;;;3.20;;
17725;SDS011;8983;53.156;17.960;2022-08-01T12:12:49;3.85;;;3.45;;
17725;SDS011;8983;53.156;17.960;2022-08-01T12:15:19;3.08;;;2.83;;
17725;SDS011;8983;53.156;17.960;2022-08-01T12:17:50;5.13;;;3.03;;
17725;SDS011;8983;53.156;17.960;2022-08-01T12:20:25;5.07;;;2.88;;
17725;SDS011;8983;53.156;17.960;2022-08-01T12:22:57;3.97;;;3.00;;
17725;SDS011;8983;53.156;17.960;2022-08-01T12:25:27;3.40;;;3.10;;
17725;SDS011;8983;53.156;17.960;2022-08-01T12:27:59;4.03;;;3.00;;
17725;SDS011;8983;53.156;17.960;2022-08-01T12:30:27;3.10;;;2.75;;
17725;SDS011;8983;53.156;17.960;2022-08-01T12:32:58;5.20;;;2.72;;
17725;SDS011;8983;53.156;17.960;2022-08-01T12:35:27;3.00;;;2.53;;
17725;SDS011;8983;53.156;17.960;2022-08-01T12:37:56;4.45;;;2.70;;
17725;SDS011;8983;53.156;17.960;2022-08-01T12:40:26;6.10;;;3.03;;
17725;SDS011;8983;53.156;17.960;2022-08-01T12:42:57;3.58;;;3.05;;
17725;SDS011;8983;53.156;17.960;2022-08-01T12:45:28;3.33;;;2.72;;
17725;SDS011;8983;53.156;17.960;2022-08-01T12:48:01;4.57;;;2.58;;
17725;SDS011;8983;53.156;17.960;2022-08-01T12:50:35;2.67;;;2.40;;
17725;SDS011;8983;53.156;17.960;2022-08-01T12:53:05;2.97;;;2.40;;
17725;SDS011;8983;53.156;17.960;2022-08-01T12:55:45;3.05;;;2.50;;
17725;SDS011;8983;53.156;17.960;2022-08-01T12:58:30;4.03;;;2.30;;
17725;SDS011;8983;53.156;17.960;2022-08-01T13:01:02;2.55;;;2.35;;
17725;SDS011;8983;53.156;17.960;2022-08-01T13:03:33;2.85;;;2.47;;
17725;SDS011;8983;53.156;17.960;2022-08-01T13:06:09;2.55;;;2.35;;
17725;SDS011;8983;53.156;17.960;2022-08-01T13:08:38;3.42;;;2.88;;
17725;SDS011;8983;53.156;17.960;2022-08-01T13:11:07;3.05;;;2.20;;
17725;SDS011;8983;53.156;17.960;2022-08-01T13:13:40;3.17;;;2.55;;
17725;SDS011;8983;53.156;17.960;2022-08-01T13:16:10;2.65;;;2.17;;
17725;SDS011;8983;53.156;17.960;2022-08-01T13:18:52;4.68;;;2.25;;
17725;SDS011;8983;53.156;17.960;2022-08-01T13:21:23;2.88;;;2.08;;
17725;SDS011;8983;53.156;17.960;2022-08-01T13:24:01;2.85;;;2.10;;
17725;SDS011;8983;53.156;17.960;2022-08-01T13:26:38;3.88;;;2.20;;
17725;SDS011;8983;53.156;17.960;2022-08-01T13:29:11;3.63;;;2.20;;
17725;SDS011;8983;53.156;17.960;2022-08-01T13:31:40;2.65;;;2.33;;
17725;SDS011;8983;53.156;17.960;2022-08-01T13:34:11;2.05;;;1.90;;
17725;SDS011;8983;53.156;17.960;2022-08-01T13:36:40;3.30;;;2.40;;
17725;SDS011;8983;53.156;17.960;2022-08-01T13:39:14;2.83;;;2.30;;
17725;SDS011;8983;53.156;17.960;2022-08-01T13:42:00;3.38;;;2.42;;
17725;SDS011;8983;53.156;17.960;2022-08-01T13:44:29;3.15;;;2.17;;
17725;SDS011;8983;53.156;17.960;2022-08-01T13:46:57;2.40;;;2.20;;
17725;SDS011;8983;53.156;17.960;2022-08-01T13:49:27;2.42;;;2.22;;
17725;SDS011;8983;53.156;17.960;2022-08-01T13:52:02;2.30;;;2.10;;
17725;SDS011;8983;53.156;17.960;2022-08-01T13:54:33;3.85;;;2.35;;
17725;SDS011;8983;53.156;17.960;2022-08-01T13:57:02;3.15;;;2.50;;
17725;SDS011;8983;53.156;17.960;2022-08-01T13:59:30;2.70;;;2.50;;
17725;SDS011;8983;53.156;17.960;2022-08-01T14:01:58;9.05;;;2.33;;
17725;SDS011;8983;53.156;17.960;2022-08-01T14:04:28;3.30;;;2.53;;
17725;SDS011;8983;53.156;17.960;2022-08-01T14:06:56;4.00;;;2.33;;
17725;SDS011;8983;53.156;17.960;2022-08-01T14:09:28;3.60;;;2.40;;
17725;SDS011;8983;53.156;17.960;2022-08-01T14:11:57;2.70;;;2.35;;
17725;SDS011;8983;53.156;17.960;2022-08-01T14:14:25;2.45;;;2.20;;
17725;SDS011;8983;53.156;17.960;2022-08-01T14:16:53;3.47;;;2.35;;
17725;SDS011;8983;53.156;17.960;2022-08-01T14:19:22;2.70;;;2.50;;
17725;SDS011;8983;53.156;17.960;2022-08-01T14:22:05;2.75;;;2.50;;
17725;SDS011;8983;53.156;17.960;2022-08-01T14:24:34;2.97;;;2.40;;
17725;SDS011;8983;53.156;17.960;2022-08-01T14:27:04;4.30;;;2.45;;
17725;SDS011;8983;53.156;17.960;2022-08-01T14:29:32;2.40;;;2.20;;
17725;SDS011;8983;53.156;17.960;2022-08-01T14:32:20;3.00;;;2.35;;
17725;SDS011;8983;53.156;17.960;2022-08-01T14:34:54;4.25;;;2.58;;
17725;SDS011;8983;53.156;17.960;2022-08-01T14:37:24;2.65;;;2.45;;
17725;SDS011;8983;53.156;17.960;2022-08-01T14:39:54;2.88;;;2.40;;
17725;SDS011;8983;53.156;17.960;2022-08-01T14:42:24;2.75;;;2.33;;
17725;SDS011;8983;53.156;17.960;2022-08-01T14:44:52;3.42;;;2.50;;
17725;SDS011;8983;53.156;17.960;2022-08-01T14:47:20;2.70;;;2.40;;
17725;SDS011;8983;53.156;17.960;2022-08-01T14:49:48;3.65;;;2.22;;
17725;SDS011;8983;53.156;17.960;2022-08-01T14:52:16;3.50;;;2.53;;
17725;SDS011;8983;53.156;17.960;2022-08-01T14:54:47;4.50;;;2.33;;
17725;SDS011;8983;53.156;17.960;2022-08-01T14:57:15;3.05;;;2.22;;
17725;SDS011;8983;53.156;17.960;2022-08-01T14:59:44;2.63;;;2.15;;
17725;SDS011;8983;53.156;17.960;2022-08-01T15:02:12;2.20;;;2.05;;
17725;SDS011;8983;53.156;17.960;2022-08-01T15:04:43;3.03;;;2.45;;
17725;SDS011;8983;53.156;17.960;2022-08-01T15:07:11;3.42;;;2.70;;
17725;SDS011;8983;53.156;17.960;2022-08-01T15:09:39;6.00;;;2.58;;
17725;SDS011;8983;53.156;17.960;2022-08-01T15:12:09;6.28;;;2.42;;
17725;SDS011;8983;53.156;17.960;2022-08-01T15:14:38;2.50;;;2.30;;
17725;SDS011;8983;53.156;17.960;2022-08-01T15:17:16;4.30;;;2.28;;
17725;SDS011;8983;53.156;17.960;2022-08-01T15:19:45;2.30;;;2.10;;
17725;SDS011;8983;53.156;17.960;2022-08-01T15:22:14;3.47;;;2.38;;
17725;SDS011;8983;53.156;17.960;2022-08-01T15:24:42;3.10;;;1.92;;
17725;SDS011;8983;53.156;17.960;2022-08-01T15:27:11;6.47;;;2.60;;